Time,TemperatureF,DewpointF,PressureIn,WindDirection,WindDirectionDegrees,WindSpeedMPH,WindSpeedGustMPH,Humidity,HourlyPrecipIn,Conditions,Clouds,dailyrainin,SoftwareType,DateUTC
2013-09-06 00:11:00,57.0,56.0,30.03,SSE,148,0.0,0.0,96,0.00,,,0.00,weatherlink.com 1.10,2013-09-06 07:11:00,
2013-09-06 00:26:00,56.6,56.0,30.02,SSE,148,0.0,0.0,96,0.00,,,0.00,weatherlink.com 1.10,2013-09-06 07:26:00,
2013-09-06 00:41:00,56.4,55.0,30.02,SSE,148,0.0,0.0,96,0.00,,,0.00,weatherlink.com 1.10,2013-09-06 07:41:00,
2013-09-06 00:56:00,56.1,55.0,30.02,SSE,148,0.0,0.0,97,0.00,,,0.00,weatherlink.com 1.10,2013-09-06 07:56:00,
2013-09-06 01:11:00,55.8,55.0,30.02,SSE,148,0.0,0.0,97,0.00,,,0.00,weatherlink.com 1.10,2013-09-06 08:11:00,
2013-09-06 01:26:00,55.5,55.0,30.02,SSE,148,0.0,0.0,97,0.00,,,0.00,weatherlink.com 1.10,2013-09-06 08:26:00,
2013-09-06 01:41:00,55.5,55.0,30.02,SSE,148,0.0,0.0,97,0.00,,,0.00,weatherlink.com 1.10,2013-09-06 08:41:00,
2013-09-06 01:56:00,55.6,55.0,30.02,North,11,0.0,0.0,97,0.00,,,0.00,weatherlink.com 1.10,2013-09-06 08:56:00,
2013-09-06 02:11:00,55.2,54.0,30.02,North,11,0.0,0.0,97,0.00,,,0.00,weatherlink.com 1.10,2013-09-06 09:11:00,
2013-09-06 02:26:00,54.8,54.0,30.02,North,11,0.0,0.0,97,0.00,,,0.00,weatherlink.com 1.10,2013-09-06 09:26:00,
2013-09-06 02:41:00,54.6,54.0,30.01,North,11,0.0,0.0,97,0.00,,,0.00,weatherlink.com 1.10,2013-09-06 09:41:00,
2013-09-06 02:56:00,54.3,54.0,30.01,North,11,0.0,0.0,97,0.00,,,0.00,weatherlink.com 1.10,2013-09-06 09:56:00,
2013-09-06 03:11:00,53.9,53.0,30.00,North,9,0.0,0.0,97,0.00,,,0.00,weatherlink.com 1.10,2013-09-06 10:11:00,
2013-09-06 03:26:00,53.7,53.0,30.00,North,9,0.0,0.0,97,0.00,,,0.00,weatherlink.com 1.10,2013-09-06 10:26:00,
2013-09-06 03:41:00,53.9,53.0,30.00,North,9,0.0,0.0,97,0.00,,,0.00,weatherlink.com 1.10,2013-09-06 10:41:00,
2013-09-06 03:56:00,53.4,53.0,29.99,North,9,0.0,0.0,97,0.00,,,0.00,weatherlink.com 1.10,2013-09-06 10:56:00,
2013-09-06 04:11:00,53.3,53.0,29.99,North,9,0.0,0.0,97,0.00,,,0.00,weatherlink.com 1.10,2013-09-06 11:11:00,
2013-09-06 04:26:00,53.6,53.0,30.00,NNE,15,3.0,4.0,97,0.00,,,0.00,weatherlink.com 1.10,2013-09-06 11:26:00,
2013-09-06 04:41:00,54.0,54.0,29.99,NE,53,0.0,1.0,98,0.00,,,0.00,weatherlink.com 1.10,2013-09-06 11:41:00,
2013-09-06 04:56:00,53.2,52.0,29.99,NE,53,0.0,0.0,97,0.00,,,0.00,weatherlink.com 1.10,2013-09-06 11:56:00,
2013-09-06 05:11:00,53.1,53.0,29.99,NNE,22,0.0,2.0,98,0.00,,,0.00,weatherlink.com 1.10,2013-09-06 12:11:00,
2013-09-06 05:27:00,52.8,52.0,29.99,NNE,22,0.0,0.0,98,0.00,,,0.00,weatherlink.com 1.10,2013-09-06 12:27:00,
2013-09-06 05:42:00,52.6,52.0,29.99,NNE,22,0.0,0.0,97,0.00,,,0.00,weatherlink.com 1.10,2013-09-06 12:42:00,
2013-09-06 05:57:00,52.4,52.0,29.99,NNE,22,0.0,0.0,98,0.00,,,0.00,weatherlink.com 1.10,2013-09-06 12:57:00,
2013-09-06 06:12:00,52.1,51.0,29.99,NNE,22,0.0,0.0,97,0.00,,,0.00,weatherlink.com 1.10,2013-09-06 13:12:00,
2013-09-06 06:27:00,51.9,51.0,29.99,NNE,22,0.0,0.0,98,0.00,,,0.00,weatherlink.com 1.10,2013-09-06 13:27:00,
2013-09-06 06:42:00,51.8,51.0,30.00,NNE,14,0.0,0.0,98,0.00,,,0.00,weatherlink.com 1.10,2013-09-06 13:42:00,
2013-09-06 06:57:00,51.8,51.0,30.00,NNE,14,0.0,0.0,98,0.00,,,0.00,weatherlink.com 1.10,2013-09-06 13:57:00,
2013-09-06 07:12:00,51.6,51.0,30.00,NNE,14,0.0,0.0,98,0.00,,,0.00,weatherlink.com 1.10,2013-09-06 14:12:00,
2013-09-06 07:27:00,51.5,51.0,30.00,NNE,14,0.0,0.0,98,0.00,,,0.00,weatherlink.com 1.10,2013-09-06 14:27:00,
2013-09-06 07:42:00,51.4,51.0,30.00,NNE,14,0.0,0.0,98,0.00,,,0.00,weatherlink.com 1.10,2013-09-06 14:42:00,
2013-09-06 07:57:00,51.4,51.0,30.00,NNE,14,0.0,0.0,98,0.00,,,0.00,weatherlink.com 1.10,2013-09-06 14:57:00,
2013-09-06 08:12:00,52.0,51.0,30.00,NNE,14,0.0,0.0,97,0.00,,,0.00,weatherlink.com 1.10,2013-09-06 15:12:00,
2013-09-06 08:27:00,52.2,52.0,30.00,NNE,14,0.0,0.0,98,0.00,,,0.00,weatherlink.com 1.10,2013-09-06 15:27:00,
2013-09-06 08:42:00,53.2,53.0,30.01,NNE,14,0.0,0.0,98,0.00,,,0.00,weatherlink.com 1.10,2013-09-06 15:42:00,
2013-09-06 08:57:00,54.1,54.0,30.00,East,96,0.0,0.0,98,0.00,,,0.00,weatherlink.com 1.10,2013-09-06 15:57:00,
2013-09-06 09:12:00,55.3,55.0,30.00,East,96,0.0,0.0,98,0.00,,,0.00,weatherlink.com 1.10,2013-09-06 16:12:00,
2013-09-06 09:27:00,56.9,56.0,30.00,East,96,0.0,0.0,98,0.00,,,0.00,weatherlink.com 1.10,2013-09-06 16:27:00,
2013-09-06 09:42:00,58.3,58.0,30.00,East,96,0.0,0.0,98,0.00,,,0.00,weatherlink.com 1.10,2013-09-06 16:42:00,
2013-09-06 09:57:00,59.7,59.0,30.00,East,96,0.0,0.0,98,0.01,,,0.01,weatherlink.com 1.10,2013-09-06 16:57:00,
2013-09-06 10:12:00,61.6,61.0,29.99,ESE,120,0.0,0.0,97,0.01,,,0.01,weatherlink.com 1.10,2013-09-06 17:12:00,
2013-09-06 10:27:00,62.6,59.0,29.99,SSE,150,0.0,0.0,87,0.01,,,0.01,weatherlink.com 1.10,2013-09-06 17:27:00,
2013-09-06 10:42:00,63.7,58.0,29.98,North,351,0.0,2.0,82,0.01,,,0.01,weatherlink.com 1.10,2013-09-06 17:42:00,
2013-09-06 10:57:00,64.5,58.0,29.98,SSW,203,1.0,1.0,78,0.00,,,0.01,weatherlink.com 1.10,2013-09-06 17:57:00,
2013-09-06 11:12:00,66.7,59.0,29.98,SSW,212,0.0,0.0,76,0.00,,,0.01,weatherlink.com 1.10,2013-09-06 18:12:00,
2013-09-06 11:27:00,68.6,59.0,29.97,South,169,0.0,1.0,72,0.00,,,0.01,weatherlink.com 1.10,2013-09-06 18:27:00,
2013-09-06 11:42:00,69.0,58.0,29.97,WSW,253,0.0,4.0,68,0.00,,,0.01,weatherlink.com 1.10,2013-09-06 18:42:00,
2013-09-06 11:57:00,69.6,58.0,29.96,SSW,192,0.0,3.0,67,0.00,,,0.01,weatherlink.com 1.10,2013-09-06 18:57:00,
2013-09-06 12:12:00,69.7,58.0,29.96,SSW,201,1.0,4.0,66,0.00,,,0.01,weatherlink.com 1.10,2013-09-06 19:12:00,
2013-09-06 12:27:00,71.3,57.0,29.95,SE,144,0.0,4.0,62,0.00,,,0.01,weatherlink.com 1.10,2013-09-06 19:27:00,
2013-09-06 12:42:00,71.5,57.0,29.95,SSE,159,0.0,4.0,61,0.00,,,0.01,weatherlink.com 1.10,2013-09-06 19:42:00,
2013-09-06 12:57:00,71.5,58.0,29.94,SSE,165,0.0,2.0,62,0.00,,,0.01,weatherlink.com 1.10,2013-09-06 19:57:00,
2013-09-06 13:12:00,71.0,58.0,29.94,South,175,0.0,4.0,63,0.00,,,0.01,weatherlink.com 1.10,2013-09-06 20:12:00,
2013-09-06 13:28:00,71.3,57.0,29.93,NNE,15,0.0,4.0,62,0.00,,,0.01,weatherlink.com 1.10,2013-09-06 20:28:00,
2013-09-06 13:43:00,70.1,58.0,29.93,SSW,211,0.0,6.0,65,0.00,,,0.01,weatherlink.com 1.10,2013-09-06 20:43:00,
2013-09-06 13:58:00,70.6,58.0,29.93,SSW,208,1.0,5.0,64,0.00,,,0.01,weatherlink.com 1.10,2013-09-06 20:58:00,
2013-09-06 14:13:00,71.7,58.0,29.92,SW,221,0.0,5.0,63,0.00,,,0.01,weatherlink.com 1.10,2013-09-06 21:13:00,
2013-09-06 14:28:00,72.7,58.0,29.91,South,183,3.0,5.0,61,0.00,,,0.01,weatherlink.com 1.10,2013-09-06 21:28:00,
2013-09-06 14:43:00,72.8,58.0,29.91,South,169,0.0,5.0,60,0.00,,,0.01,weatherlink.com 1.10,2013-09-06 21:43:00,
2013-09-06 14:58:00,71.8,57.0,29.91,SW,234,3.0,5.0,61,0.00,,,0.01,weatherlink.com 1.10,2013-09-06 21:58:00,
2013-09-06 15:13:00,71.0,57.0,29.90,SE,140,0.0,6.0,62,0.00,,,0.01,weatherlink.com 1.10,2013-09-06 22:13:00,
2013-09-06 15:28:00,70.4,58.0,29.90,WNW,303,0.0,4.0,65,0.00,,,0.01,weatherlink.com 1.10,2013-09-06 22:28:00,
2013-09-06 15:43:00,69.2,58.0,29.90,SSW,192,1.0,4.0,68,0.00,,,0.01,weatherlink.com 1.10,2013-09-06 22:43:00,
2013-09-06 15:58:00,68.9,58.0,29.90,WSW,237,0.0,5.0,69,0.00,,,0.01,weatherlink.com 1.10,2013-09-06 22:58:00,
2013-09-06 16:13:00,67.8,58.0,29.89,SW,215,0.0,4.0,71,0.00,,,0.01,weatherlink.com 1.10,2013-09-06 23:13:00,
2013-09-06 16:28:00,67.3,58.0,29.89,SW,221,0.0,4.0,73,0.00,,,0.01,weatherlink.com 1.10,2013-09-06 23:28:00,
2013-09-06 16:43:00,67.8,58.0,29.89,SSW,205,0.0,4.0,72,0.00,,,0.01,weatherlink.com 1.10,2013-09-06 23:43:00,
2013-09-06 16:58:00,69.5,58.0,29.88,NW,309,0.0,4.0,68,0.00,,,0.01,weatherlink.com 1.10,2013-09-06 23:58:00,
2013-09-06 17:13:00,69.0,58.0,29.88,SSW,194,0.0,7.0,69,0.00,,,0.01,weatherlink.com 1.10,2013-09-07 00:13:00,
2013-09-06 17:28:00,69.3,59.0,29.88,WNW,295,0.0,4.0,69,0.00,,,0.01,weatherlink.com 1.10,2013-09-07 00:28:00,
2013-09-06 17:43:00,68.9,58.0,29.88,NW,305,1.0,5.0,69,0.00,,,0.01,weatherlink.com 1.10,2013-09-07 00:43:00,
2013-09-06 17:58:00,68.3,58.0,29.88,NNW,337,0.0,7.0,70,0.00,,,0.01,weatherlink.com 1.10,2013-09-07 00:58:00,
2013-09-06 18:13:00,67.6,58.0,29.87,NNW,346,0.0,4.0,72,0.00,,,0.01,weatherlink.com 1.10,2013-09-07 01:13:00,
2013-09-06 18:28:00,66.8,58.0,29.87,South,181,0.0,2.0,73,0.00,,,0.01,weatherlink.com 1.10,2013-09-07 01:28:00,
2013-09-06 18:43:00,65.6,58.0,29.87,South,180,0.0,0.0,76,0.00,,,0.01,weatherlink.com 1.10,2013-09-07 01:43:00,
2013-09-06 18:58:00,64.3,57.0,29.87,WSW,252,0.0,3.0,78,0.00,,,0.01,weatherlink.com 1.10,2013-09-07 01:58:00,
2013-09-06 19:13:00,63.7,57.0,29.86,West,281,0.0,0.0,79,0.00,,,0.01,weatherlink.com 1.10,2013-09-07 02:13:00,
2013-09-06 19:28:00,63.2,57.0,29.86,WSW,247,0.0,0.0,80,0.00,,,0.01,weatherlink.com 1.10,2013-09-07 02:28:00,
2013-09-06 19:43:00,62.3,56.0,29.86,WSW,247,0.0,0.0,81,0.00,,,0.01,weatherlink.com 1.10,2013-09-07 02:43:00,
2013-09-06 19:58:00,61.4,56.0,29.86,WSW,247,0.0,0.0,83,0.00,,,0.01,weatherlink.com 1.10,2013-09-07 02:58:00,
2013-09-06 20:13:00,60.6,56.0,29.87,WSW,247,0.0,0.0,85,0.00,,,0.01,weatherlink.com 1.10,2013-09-07 03:13:00,
2013-09-06 20:28:00,59.7,56.0,29.87,WSW,247,0.0,0.0,87,0.00,,,0.01,weatherlink.com 1.10,2013-09-07 03:28:00,
2013-09-06 20:43:00,59.0,56.0,29.87,WSW,247,0.0,0.0,88,0.00,,,0.01,weatherlink.com 1.10,2013-09-07 03:43:00,
2013-09-06 20:58:00,58.5,55.0,29.87,WSW,247,0.0,0.0,89,0.00,,,0.01,weatherlink.com 1.10,2013-09-07 03:58:00,
2013-09-06 21:13:00,58.0,55.0,29.87,WSW,247,0.0,0.0,90,0.00,,,0.01,weatherlink.com 1.10,2013-09-07 04:13:00,
2013-09-06 21:28:00,57.7,55.0,29.87,WSW,247,0.0,0.0,91,0.00,,,0.01,weatherlink.com 1.10,2013-09-07 04:28:00,
2013-09-06 21:43:00,57.5,55.0,29.87,WSW,247,0.0,0.0,92,0.00,,,0.01,weatherlink.com 1.10,2013-09-07 04:43:00,
2013-09-06 21:58:00,57.3,55.0,29.87,WSW,247,0.0,0.0,92,0.00,,,0.01,weatherlink.com 1.10,2013-09-07 04:58:00,
2013-09-06 22:13:00,57.1,55.0,29.87,WSW,247,0.0,0.0,93,0.00,,,0.01,weatherlink.com 1.10,2013-09-07 05:13:00,
2013-09-06 22:28:00,57.0,55.0,29.87,WSW,247,0.0,0.0,93,0.00,,,0.01,weatherlink.com 1.10,2013-09-07 05:28:00,
2013-09-06 22:43:00,56.8,55.0,29.87,WSW,247,0.0,0.0,93,0.00,,,0.01,weatherlink.com 1.10,2013-09-07 05:43:00,
2013-09-06 22:58:00,56.7,55.0,29.87,WSW,247,0.0,0.0,94,0.00,,,0.01,weatherlink.com 1.10,2013-09-07 05:58:00,
2013-09-06 23:13:00,56.6,55.0,29.87,WSW,247,0.0,0.0,94,0.00,,,0.01,weatherlink.com 1.10,2013-09-07 06:13:00,
2013-09-06 23:28:00,56.4,55.0,29.87,WSW,247,0.0,0.0,94,0.00,,,0.01,weatherlink.com 1.10,2013-09-07 06:28:00,
2013-09-06 23:43:00,56.2,55.0,29.86,WSW,247,0.0,0.0,94,0.00,,,0.01,weatherlink.com 1.10,2013-09-07 06:43:00,
2013-09-06 23:58:00,56.1,54.0,29.86,WSW,247,0.0,0.0,94,0.00,,,0.01,weatherlink.com 1.10,2013-09-07 06:58:00,